Etusivu
METAR-TAF:

METAR-TAF

Lentoasemat :

Boone Municipal Airport

Boone, Iowa, Yhdysvallat

Leveyspiiri: 42-03N, Pituuspiiri: 093-51W, korkeus merenpinnasta: 354 m

Tämänhetkinen sää

Tämä raportti tehtiin 24 minuuttia sitten, kello 08.55 UTC
Tuuli 9 kn lännestä/luoteesta
Lämpötila -5°C
Kosteus 100%
Ilmanpaine 1021 hPa
Näkyvyys: 16.1 km
selkeää

METAR: KBNW 180855Z AUTO 30009KT 10SM CLR M05/M05 A3015 RMK AO2

Aika: 03:19 (09:19 UTC)


TAF: puuttuu

Säähavainnot ja -ennusteet yli 4000 lentoasemalta (METAR- ja TAF-raportit).

Käytössä olevat sääasemat on merkitty karttaan keltaisilla ja punaisilla pisteillä.

Aseta hiiri pisteen päälle nähdäksesi sääaseman nimen.

Klikkaa sitten nähdäksesi säähavainnot ja -ennusteet.

Kartan vaihtaminen: klikkaa mustalla rastilla varustettuja vihreitä pisteitä, niin voit zoomata sisään; viivalla varustettua vihreää pistettä, niin voit zoomata ulos tai vihreitä nuolia, niin pääset viereisille kartoille.


METAR-TAF: